createdAt,value
2023-05-22T00:01:56.791Z,18.07
2023-05-22T00:04:23.851Z,18.70
2023-05-22T00:06:50.763Z,19.17
2023-05-22T00:09:17.987Z,20.07
2023-05-22T00:11:45.095Z,16.67
2023-05-22T00:14:13.737Z,21.87
2023-05-22T00:16:41.356Z,17.17
2023-05-22T00:19:16.539Z,19.73
2023-05-22T00:21:44.257Z,18.53
2023-05-22T00:24:11.056Z,18.50
2023-05-22T00:26:38.148Z,19.13
2023-05-22T00:29:06.011Z,19.43
2023-05-22T00:31:32.946Z,20.50
2023-05-22T00:34:00.071Z,18.90
2023-05-22T00:36:27.081Z,18.63
2023-05-22T00:38:53.960Z,19.70
2023-05-22T00:41:22.423Z,21.67
2023-05-22T00:43:51.121Z,22.33
2023-05-22T00:46:22.844Z,25.00
2023-05-22T00:48:50.123Z,21.70
2023-05-22T00:51:17.073Z,18.77
2023-05-22T00:53:45.094Z,21.07
2023-05-22T00:56:13.234Z,18.77
2023-05-22T00:58:40.199Z,21.30
2023-05-22T01:01:09.693Z,24.33
2023-05-22T01:03:42.393Z,22.13
2023-05-22T01:06:09.359Z,19.37
2023-05-22T01:08:36.096Z,18.63
2023-05-22T01:11:12.653Z,22.27
2023-05-22T01:14:04.301Z,28.03
2023-05-22T01:17:01.194Z,22.17
2023-05-22T01:19:31.170Z,20.00
2023-05-22T01:22:28.569Z,20.20
2023-05-22T01:25:26.634Z,23.43
2023-05-22T01:28:02.493Z,21.70
2023-05-22T01:30:41.361Z,18.03
2023-05-22T01:33:12.330Z,24.43
2023-05-22T01:35:40.626Z,23.30
2023-05-22T01:38:09.133Z,23.47
2023-05-22T01:40:37.350Z,23.03
2023-05-22T01:43:04.755Z,19.33
2023-05-22T01:45:31.931Z,21.37
2023-05-22T01:47:59.048Z,21.50
2023-05-22T01:50:26.670Z,21.43
2023-05-22T01:53:21.191Z,20.20
2023-05-22T01:56:06.536Z,22.20
2023-05-22T01:58:52.887Z,23.57
2023-05-22T02:01:22.644Z,20.03
2023-05-22T02:03:56.667Z,21.10
2023-05-22T02:06:26.271Z,23.87
2023-05-22T02:08:54.210Z,23.87
2023-05-22T02:11:24.632Z,23.07
2023-05-22T02:13:52.286Z,26.17
2023-05-22T02:16:21.862Z,23.83
2023-05-22T02:18:49.020Z,31.23
2023-05-22T02:21:16.040Z,23.87
2023-05-22T02:23:43.216Z,23.80
2023-05-22T02:26:10.120Z,24.70
2023-05-22T02:28:37.001Z,21.93
2023-05-22T02:31:04.183Z,25.10
2023-05-22T02:33:31.184Z,25.47
2023-05-22T02:35:58.048Z,24.67
2023-05-22T02:38:24.970Z,29.13
2023-05-22T02:40:51.891Z,24.00
2023-05-22T02:43:18.694Z,22.13
2023-05-22T02:45:45.644Z,25.07
2023-05-22T02:48:13.282Z,23.97
2023-05-22T02:50:40.535Z,29.23
2023-05-22T02:53:08.457Z,24.33
2023-05-22T02:55:35.349Z,28.17
2023-05-22T02:58:03.271Z,26.03
2023-05-22T03:00:30.124Z,25.27
2023-05-22T03:02:57.036Z,23.67
2023-05-22T03:05:24.022Z,25.43
2023-05-22T03:07:50.983Z,23.77
2023-05-22T03:10:17.821Z,22.10
2023-05-22T03:12:44.787Z,26.73
2023-05-22T03:15:11.991Z,25.27
2023-05-22T03:17:38.913Z,25.90
2023-05-22T03:20:06.946Z,27.40
2023-05-22T03:22:33.817Z,25.40
2023-05-22T03:25:00.633Z,26.83
2023-05-22T03:27:27.629Z,25.47
2023-05-22T03:29:54.445Z,27.50
2023-05-22T03:32:21.304Z,24.53
2023-05-22T03:34:48.274Z,27.47
2023-05-22T03:37:15.170Z,23.97
2023-05-22T03:39:42.053Z,24.43
2023-05-22T03:42:08.899Z,21.07
2023-05-22T03:44:36.046Z,22.77
2023-05-22T03:47:02.903Z,22.37
2023-05-22T03:49:29.766Z,24.53
2023-05-22T03:51:56.719Z,30.67
2023-05-22T03:54:23.591Z,24.50
2023-05-22T03:56:50.810Z,22.67
2023-05-22T03:59:17.773Z,26.40
2023-05-22T04:01:46.597Z,24.80
2023-05-22T04:04:13.605Z,21.67
2023-05-22T04:06:43.838Z,22.07
2023-05-22T04:09:13.959Z,26.03
2023-05-22T04:11:42.188Z,23.97
2023-05-22T04:14:09.597Z,23.20
2023-05-22T04:16:36.467Z,26.83
2023-05-22T04:19:03.656Z,24.40
2023-05-22T04:21:34.460Z,27.50
2023-05-22T04:24:02.223Z,24.33
2023-05-22T04:26:32.252Z,21.07
2023-05-22T04:28:59.238Z,24.80
2023-05-22T04:31:26.326Z,25.87
2023-05-22T04:33:54.713Z,21.43
2023-05-22T04:36:26.732Z,23.10
2023-05-22T04:38:54.151Z,26.20
2023-05-22T04:41:22.774Z,22.77
2023-05-22T04:43:49.829Z,26.03
2023-05-22T04:46:16.799Z,23.53
2023-05-22T04:48:43.791Z,25.83
2023-05-22T04:51:10.809Z,21.93
2023-05-22T04:53:38.773Z,27.23
2023-05-22T04:56:06.579Z,27.27
2023-05-22T04:58:33.667Z,27.80
2023-05-22T05:01:00.587Z,22.87
2023-05-22T05:03:28.501Z,21.87
2023-05-22T05:05:56.787Z,26.93
2023-05-22T05:08:23.720Z,22.73
2023-05-22T05:10:50.673Z,24.87
2023-05-22T05:13:17.558Z,22.10
2023-05-22T05:15:44.457Z,24.30
2023-05-22T05:18:12.398Z,24.50
2023-05-22T05:20:39.530Z,24.37
2023-05-22T05:23:06.574Z,27.27
2023-05-22T05:25:33.534Z,26.97
2023-05-22T05:28:00.436Z,25.83
2023-05-22T05:30:30.120Z,28.40
2023-05-22T05:32:57.050Z,24.80
2023-05-22T05:35:24.003Z,28.67
2023-05-22T05:37:51.775Z,30.77
2023-05-22T05:40:18.825Z,26.83
2023-05-22T05:42:45.723Z,28.57
2023-05-22T05:45:13.957Z,25.53
2023-05-22T05:47:41.373Z,26.47
2023-05-22T05:50:09.701Z,23.10
2023-05-22T05:52:36.643Z,24.97
2023-05-22T05:55:03.624Z,25.63
2023-05-22T05:57:31.735Z,27.70
2023-05-22T05:59:58.699Z,27.00
2023-05-22T06:02:25.692Z,23.77
2023-05-22T06:04:53.895Z,26.90
2023-05-22T06:07:21.023Z,24.40
2023-05-22T06:09:47.891Z,27.83
2023-05-22T06:12:14.884Z,29.00
2023-05-22T06:14:41.714Z,26.33
2023-05-22T06:17:09.346Z,23.37
2023-05-22T06:19:36.633Z,24.30
2023-05-22T06:22:03.735Z,29.93
2023-05-22T06:24:32.483Z,26.70
2023-05-22T06:26:59.604Z,29.97
2023-05-22T06:29:26.676Z,30.07
2023-05-22T06:31:53.571Z,28.50
2023-05-22T06:34:22.480Z,32.10
2023-05-22T06:36:50.598Z,29.53
2023-05-22T06:39:18.675Z,32.90
2023-05-22T06:41:45.913Z,34.43
2023-05-22T06:44:13.077Z,37.27
2023-05-22T06:46:40.101Z,36.53
2023-05-22T06:49:07.125Z,33.70
2023-05-22T06:51:34.330Z,29.57
2023-05-22T06:54:01.382Z,35.47
2023-05-22T06:56:28.150Z,37.90
2023-05-22T06:58:55.079Z,32.27
2023-05-22T07:01:23.290Z,32.30
2023-05-22T07:03:50.228Z,37.23
2023-05-22T07:06:18.299Z,36.37
2023-05-22T07:08:45.348Z,43.63
2023-05-22T07:11:12.194Z,38.40
2023-05-22T07:13:39.157Z,36.93
2023-05-22T07:16:06.470Z,33.10
2023-05-22T07:18:33.655Z,33.20
2023-05-22T07:21:00.869Z,39.80
2023-05-22T07:23:27.732Z,41.17
2023-05-22T07:25:54.754Z,37.63
2023-05-22T07:28:21.626Z,28.30
2023-05-22T07:30:48.507Z,37.33
2023-05-22T07:33:16.184Z,32.77
2023-05-22T07:35:43.832Z,36.90
2023-05-22T07:38:10.703Z,37.03
2023-05-22T07:40:37.854Z,39.63
2023-05-22T07:43:05.207Z,39.47
2023-05-22T07:45:32.060Z,34.80
2023-05-22T07:47:59.141Z,36.30
2023-05-22T07:50:27.094Z,34.67
2023-05-22T07:52:53.924Z,38.27
2023-05-22T07:55:20.878Z,37.27
2023-05-22T07:57:47.766Z,38.47
2023-05-22T08:00:17.072Z,35.80
2023-05-22T08:02:44.146Z,38.70
2023-05-22T08:05:12.347Z,36.30
2023-05-22T08:07:39.610Z,35.03
2023-05-22T08:10:15.689Z,35.40
2023-05-22T08:12:42.548Z,40.90
2023-05-22T08:15:10.127Z,33.87
2023-05-22T08:17:37.603Z,37.67
2023-05-22T08:20:05.924Z,33.33
2023-05-22T08:22:34.280Z,41.57
2023-05-22T08:25:01.288Z,37.23
2023-05-22T08:27:28.249Z,34.60
2023-05-22T08:29:55.100Z,30.57
2023-05-22T08:32:22.100Z,37.37
2023-05-22T08:34:49.310Z,34.10
2023-05-22T08:37:16.237Z,34.37
2023-05-22T08:39:43.124Z,31.53
2023-05-22T08:42:10.157Z,30.90
2023-05-22T08:44:37.255Z,32.77
2023-05-22T08:47:09.862Z,30.03
2023-05-22T08:49:39.406Z,28.53
2023-05-22T08:52:14.019Z,32.83
2023-05-22T08:54:43.493Z,31.53
2023-05-22T08:57:11.316Z,31.87
2023-05-22T08:59:41.125Z,32.13
2023-05-22T09:02:09.731Z,35.27
2023-05-22T09:04:36.609Z,35.07
2023-05-22T09:07:06.024Z,32.23
2023-05-22T09:09:37.939Z,32.57
2023-05-22T09:12:09.825Z,36.97
2023-05-22T09:14:44.008Z,31.37
2023-05-22T09:17:15.472Z,31.07
2023-05-22T09:19:46.414Z,33.30
2023-05-22T09:22:14.198Z,32.03
2023-05-22T09:24:42.674Z,35.60
2023-05-22T09:27:11.135Z,35.87
2023-05-22T09:30:08.942Z,38.30
2023-05-22T09:32:36.157Z,35.50
2023-05-22T09:35:06.906Z,40.13
2023-05-22T09:37:35.594Z,38.73
2023-05-22T09:40:11.824Z,35.87
2023-05-22T09:42:38.843Z,31.40
2023-05-22T09:45:07.219Z,34.90
2023-05-22T09:47:34.779Z,32.57
2023-05-22T09:50:06.369Z,30.73
2023-05-22T09:52:37.829Z,35.07
2023-05-22T09:55:08.805Z,32.03
2023-05-22T09:57:48.375Z,38.27
2023-05-22T10:00:18.104Z,33.70
2023-05-22T10:02:50.847Z,34.67
2023-05-22T10:05:22.050Z,31.60
2023-05-22T10:07:56.158Z,33.17
2023-05-22T10:10:26.234Z,36.90
2023-05-22T10:12:56.002Z,37.43
2023-05-22T10:15:23.724Z,35.17
2023-05-22T10:17:50.819Z,32.37
2023-05-22T10:20:18.969Z,35.80
2023-05-22T10:22:49.081Z,34.10
2023-05-22T10:25:21.956Z,31.47
2023-05-22T10:27:52.297Z,40.60
2023-05-22T10:30:44.593Z,33.57
2023-05-22T10:33:18.231Z,32.10
2023-05-22T10:35:48.297Z,35.13
2023-05-22T10:38:37.062Z,34.90
2023-05-22T10:41:04.527Z,29.43
2023-05-22T10:43:34.387Z,35.00
2023-05-22T10:46:05.810Z,37.30
2023-05-22T10:48:40.522Z,39.33
2023-05-22T10:51:08.810Z,36.67
2023-05-22T10:53:36.641Z,33.37
2023-05-22T10:56:14.868Z,31.50
2023-05-22T10:58:55.666Z,36.10
2023-05-22T11:01:26.425Z,34.03
2023-05-22T11:04:02.022Z,32.90
2023-05-22T11:06:36.042Z,34.00
2023-05-22T11:09:24.429Z,32.47
2023-05-22T11:12:17.474Z,36.57
2023-05-22T11:15:09.032Z,30.60
2023-05-22T11:17:51.886Z,28.03
2023-05-22T11:20:22.402Z,34.63
2023-05-22T11:23:01.216Z,27.77
2023-05-22T11:25:29.901Z,30.37
2023-05-22T11:27:57.575Z,27.97
2023-05-22T11:30:28.622Z,31.37
2023-05-22T11:32:57.440Z,29.13
2023-05-22T11:35:24.777Z,32.30
2023-05-22T11:37:52.945Z,35.90
2023-05-22T11:40:25.604Z,28.80
2023-05-22T11:42:56.359Z,28.83
2023-05-22T11:45:24.054Z,32.53
2023-05-22T11:47:51.003Z,28.73
2023-05-22T11:50:29.437Z,31.00
2023-05-22T11:53:02.885Z,26.47
2023-05-22T11:55:29.842Z,32.80
2023-05-22T11:57:56.828Z,28.87
2023-05-22T12:00:23.784Z,31.80
2023-05-22T12:02:50.850Z,30.70
2023-05-22T12:05:21.453Z,32.80
2023-05-22T12:07:48.378Z,30.20
2023-05-22T12:10:15.670Z,32.63
2023-05-22T12:12:44.917Z,27.17
2023-05-22T12:15:12.050Z,31.27
2023-05-22T12:17:40.012Z,29.27
2023-05-22T12:20:07.416Z,30.33
2023-05-22T12:22:40.527Z,31.53
2023-05-22T12:25:17.419Z,29.83
2023-05-22T12:27:47.803Z,26.67
2023-05-22T12:30:15.875Z,28.43
2023-05-22T12:32:49.336Z,23.63
2023-05-22T12:35:17.748Z,25.80
2023-05-22T12:37:52.412Z,31.13
2023-05-22T12:40:19.759Z,26.57
2023-05-22T12:42:48.413Z,23.50
2023-05-22T12:45:17.777Z,24.70
2023-05-22T12:47:44.781Z,26.57
2023-05-22T12:50:11.923Z,27.13
2023-05-22T12:52:38.840Z,27.80
2023-05-22T12:55:06.250Z,27.33
2023-05-22T12:57:33.147Z,26.67
2023-05-22T13:00:00.119Z,25.63
2023-05-22T13:02:27.164Z,26.00
2023-05-22T13:04:54.031Z,32.27
2023-05-22T13:07:21.138Z,27.50
2023-05-22T13:09:48.004Z,26.13
2023-05-22T13:12:14.961Z,25.43
2023-05-22T13:14:41.797Z,29.70
2023-05-22T13:17:08.899Z,31.40
2023-05-22T13:19:36.182Z,26.37
2023-05-22T13:22:04.920Z,26.20
2023-05-22T13:24:31.874Z,30.57
2023-05-22T13:26:59.128Z,30.20
2023-05-22T13:29:25.994Z,27.40
2023-05-22T13:31:52.829Z,30.80
2023-05-22T13:34:19.813Z,31.67
2023-05-22T13:36:46.885Z,36.83
2023-05-22T13:39:13.765Z,30.03
2023-05-22T13:41:40.865Z,35.30
2023-05-22T13:44:07.827Z,29.27
2023-05-22T13:46:34.755Z,30.07
2023-05-22T13:49:01.745Z,34.20
2023-05-22T13:51:28.700Z,28.27
2023-05-22T13:53:55.587Z,31.07
2023-05-22T13:56:23.268Z,31.43
2023-05-22T13:58:50.132Z,30.23
2023-05-22T14:01:17.023Z,30.47
2023-05-22T14:03:44.823Z,30.20
2023-05-22T14:06:11.913Z,36.07
2023-05-22T14:08:38.945Z,35.50
2023-05-22T14:11:05.967Z,28.00
2023-05-22T14:13:33.054Z,26.93
2023-05-22T14:15:59.926Z,31.37
2023-05-22T14:18:26.826Z,25.53
2023-05-22T14:20:53.864Z,29.07
2023-05-22T14:23:20.858Z,27.80
2023-05-22T14:25:47.775Z,27.37
2023-05-22T14:28:14.991Z,25.03
2023-05-22T14:30:41.854Z,26.30
2023-05-22T14:33:08.832Z,26.57
2023-05-22T14:35:35.668Z,30.27
2023-05-22T14:38:02.619Z,24.83
2023-05-22T14:40:29.544Z,23.77
2023-05-22T14:42:56.374Z,25.47
2023-05-22T14:45:23.434Z,24.60
2023-05-22T14:47:50.663Z,22.63
2023-05-22T14:50:20.224Z,28.80
2023-05-22T14:52:48.098Z,27.80
2023-05-22T14:55:15.277Z,26.57
2023-05-22T14:57:42.250Z,20.03
2023-05-22T15:00:10.927Z,25.20
2023-05-22T15:02:38.138Z,24.27
2023-05-22T15:05:07.026Z,30.47
2023-05-22T15:10:05.491Z,26.00
2023-05-22T15:12:32.634Z,22.73
2023-05-22T15:14:59.655Z,22.57
2023-05-22T15:17:26.636Z,19.83
2023-05-22T15:19:53.606Z,19.53
2023-05-22T15:22:20.761Z,23.60
2023-05-22T15:24:48.295Z,34.80
2023-05-22T15:27:15.540Z,21.00
2023-05-22T15:29:42.477Z,19.90
2023-05-22T15:32:09.728Z,23.77
2023-05-22T15:34:36.724Z,21.20
2023-05-22T15:37:03.679Z,21.40
2023-05-22T15:39:30.496Z,18.33
2023-05-22T15:42:05.794Z,19.57
2023-05-22T15:44:33.483Z,18.57
2023-05-22T15:47:00.446Z,21.90
2023-05-22T15:49:30.210Z,19.57
2023-05-22T15:51:59.000Z,16.20
2023-05-22T15:54:25.902Z,15.90
2023-05-22T15:56:52.827Z,16.50
2023-05-22T15:59:19.696Z,19.90
2023-05-22T16:01:46.750Z,12.60
2023-05-22T16:04:13.746Z,18.30
2023-05-22T16:06:40.759Z,13.93
2023-05-22T16:09:08.098Z,13.80
2023-05-22T16:11:35.093Z,13.37
2023-05-22T16:14:02.048Z,11.30
2023-05-22T16:16:28.969Z,10.67
2023-05-22T16:18:55.884Z,12.67
2023-05-22T16:21:22.791Z,15.00
2023-05-22T16:23:49.855Z,16.17
2023-05-22T16:26:17.150Z,16.60
2023-05-22T16:28:44.037Z,10.97
2023-05-22T16:31:12.992Z,14.67
2023-05-22T16:33:39.944Z,9.40
2023-05-22T16:36:07.237Z,11.77
2023-05-22T16:38:34.371Z,11.07
2023-05-22T16:41:01.430Z,9.87
2023-05-22T16:43:28.405Z,7.47
2023-05-22T16:45:55.459Z,8.20
2023-05-22T16:48:22.376Z,9.13
2023-05-22T16:50:49.240Z,11.10
2023-05-22T16:53:17.322Z,10.03
2023-05-22T16:55:44.431Z,7.53
2023-05-22T16:58:12.811Z,10.13
2023-05-22T17:00:40.359Z,11.60
2023-05-22T17:03:08.226Z,9.30
2023-05-22T17:05:36.828Z,7.10
2023-05-22T17:08:04.545Z,7.90
2023-05-22T17:10:31.463Z,7.57
2023-05-22T17:12:58.351Z,7.87
2023-05-22T17:15:25.228Z,6.97
2023-05-22T17:17:52.176Z,5.53
2023-05-22T17:20:24.907Z,9.23
2023-05-22T17:22:52.852Z,8.30
2023-05-22T17:25:19.804Z,8.17
2023-05-22T17:27:49.790Z,7.20
2023-05-22T17:30:16.726Z,6.20
2023-05-22T17:32:44.896Z,8.97
2023-05-22T17:35:11.880Z,7.13
2023-05-22T17:37:38.763Z,6.90
2023-05-22T17:40:06.517Z,8.00
2023-05-22T17:42:33.493Z,7.37
2023-05-22T17:45:00.427Z,5.70
2023-05-22T17:47:27.340Z,9.67
2023-05-22T17:49:54.196Z,11.70
2023-05-22T17:52:21.145Z,5.90
2023-05-22T17:54:49.923Z,6.67
2023-05-22T17:57:16.823Z,7.00
2023-05-22T17:59:44.494Z,5.20
2023-05-22T18:02:11.356Z,7.23
2023-05-22T18:04:38.417Z,7.50
2023-05-22T18:07:05.540Z,5.90
2023-05-22T18:09:32.839Z,6.17
2023-05-22T18:12:01.695Z,5.33
2023-05-22T18:14:28.663Z,8.07
2023-05-22T18:16:55.698Z,7.13
2023-05-22T18:19:22.598Z,6.97
2023-05-22T18:21:49.626Z,5.80
2023-05-22T18:24:16.626Z,5.23
2023-05-22T18:26:43.479Z,4.90
2023-05-22T18:29:10.411Z,4.57
2023-05-22T18:31:37.388Z,4.53
2023-05-22T18:34:04.327Z,4.23
2023-05-22T18:36:31.879Z,5.53
2023-05-22T18:38:58.727Z,6.70
2023-05-22T18:41:26.586Z,7.27
2023-05-22T18:43:53.433Z,7.20
2023-05-22T18:46:20.418Z,7.40
2023-05-22T18:48:47.317Z,6.27
2023-05-22T18:51:16.550Z,6.53
2023-05-22T18:53:43.483Z,6.97
2023-05-22T18:56:10.360Z,7.20
2023-05-22T18:58:41.390Z,5.63
2023-05-22T19:01:08.686Z,6.63
2023-05-22T19:03:35.853Z,6.50
2023-05-22T19:06:02.888Z,8.10
2023-05-22T19:08:31.180Z,7.00
2023-05-22T19:11:01.363Z,6.00
2023-05-22T19:13:29.479Z,11.33
2023-05-22T19:15:57.378Z,8.60
2023-05-22T19:18:24.719Z,5.27
2023-05-22T19:20:51.645Z,5.47
2023-05-22T19:23:19.009Z,6.77
2023-05-22T19:25:48.946Z,6.17
2023-05-22T19:28:16.022Z,6.20
2023-05-22T19:30:43.234Z,5.90
2023-05-22T19:33:11.291Z,6.43
2023-05-22T19:35:38.740Z,4.67
2023-05-22T19:38:05.909Z,4.90
2023-05-22T19:40:32.865Z,6.23
2023-05-22T19:43:00.911Z,4.87
2023-05-22T19:45:28.390Z,6.97
2023-05-22T19:47:55.868Z,7.77
2023-05-22T19:50:23.134Z,5.93
2023-05-22T19:52:50.129Z,5.93
2023-05-22T19:55:17.008Z,8.27
2023-05-22T19:57:44.620Z,6.03
2023-05-22T20:00:12.558Z,7.83
2023-05-22T20:02:42.515Z,9.00
2023-05-22T20:05:13.090Z,9.03
2023-05-22T20:07:41.807Z,10.03
2023-05-22T20:10:10.303Z,9.33
2023-05-22T20:12:38.111Z,9.43
2023-05-22T20:15:07.025Z,10.20
2023-05-22T20:17:34.552Z,9.20
2023-05-22T20:20:01.552Z,11.00
2023-05-22T20:22:28.522Z,11.60
2023-05-22T20:24:55.881Z,9.97
2023-05-22T20:27:22.942Z,12.10
2023-05-22T20:29:50.365Z,12.40
2023-05-22T20:32:17.453Z,11.63
2023-05-22T20:34:45.499Z,12.47
2023-05-22T20:37:13.741Z,13.57
2023-05-22T20:39:44.367Z,13.53
2023-05-22T20:42:13.273Z,14.27
2023-05-22T20:44:41.290Z,13.77
2023-05-22T20:47:09.327Z,17.93
2023-05-22T20:49:36.281Z,17.77
2023-05-22T20:52:04.604Z,16.00
2023-05-22T20:54:34.803Z,17.03
2023-05-22T20:57:02.186Z,18.10
2023-05-22T20:59:29.371Z,14.83
2023-05-22T21:01:57.837Z,18.87
2023-05-22T21:04:26.020Z,15.77
2023-05-22T21:06:53.034Z,15.83
2023-05-22T21:09:20.050Z,18.87
2023-05-22T21:11:47.059Z,16.83
2023-05-22T21:14:14.181Z,19.40
2023-05-22T21:16:41.190Z,15.87
2023-05-22T21:19:08.208Z,14.83
2023-05-22T21:21:41.498Z,15.50
2023-05-22T21:24:12.320Z,17.53
2023-05-22T21:26:39.549Z,17.73
2023-05-22T21:29:06.660Z,18.07
2023-05-22T21:31:35.558Z,18.70
2023-05-22T21:34:03.195Z,15.90
2023-05-22T21:36:30.132Z,18.23
2023-05-22T21:39:00.251Z,22.23
2023-05-22T21:41:29.940Z,23.53
2023-05-22T21:43:57.612Z,22.93
2023-05-22T21:46:24.551Z,32.33
2023-05-22T21:48:51.744Z,29.40
2023-05-22T21:51:18.678Z,29.13
2023-05-22T21:53:46.668Z,30.77
2023-05-22T21:56:13.553Z,29.80
2023-05-22T21:58:40.703Z,28.83
2023-05-22T22:01:07.855Z,30.13
2023-05-22T22:03:34.972Z,29.03
2023-05-22T22:06:02.157Z,29.17
2023-05-22T22:08:29.488Z,33.50
2023-05-22T22:10:57.786Z,28.87
2023-05-22T22:13:24.838Z,26.57
2023-05-22T22:15:51.852Z,25.80
2023-05-22T22:18:18.951Z,22.67
2023-05-22T22:20:45.936Z,24.10
2023-05-22T22:23:12.943Z,21.77
2023-05-22T22:25:39.791Z,22.73
2023-05-22T22:28:07.410Z,23.30
2023-05-22T22:30:35.327Z,20.47
2023-05-22T22:33:02.604Z,21.57
2023-05-22T22:35:29.799Z,19.67
2023-05-22T22:37:57.112Z,21.70
2023-05-22T22:40:38.027Z,21.60
2023-05-22T22:43:05.254Z,21.40
2023-05-22T22:45:32.097Z,19.50
2023-05-22T22:48:00.578Z,17.00
2023-05-22T22:50:28.182Z,18.73
2023-05-22T22:52:55.577Z,20.10
2023-05-22T22:55:22.741Z,22.43
2023-05-22T22:57:50.150Z,17.73
2023-05-22T23:00:18.975Z,20.73
2023-05-22T23:02:46.182Z,18.57
2023-05-22T23:05:14.717Z,15.07
2023-05-22T23:07:41.886Z,20.80
2023-05-22T23:10:09.267Z,18.23
2023-05-22T23:12:36.359Z,16.47
2023-05-22T23:15:03.935Z,18.70
2023-05-22T23:17:30.951Z,18.33
2023-05-22T23:19:58.079Z,18.23
2023-05-22T23:22:25.146Z,19.27
2023-05-22T23:24:52.148Z,17.63
2023-05-22T23:27:19.180Z,18.93
2023-05-22T23:29:46.152Z,17.23
2023-05-22T23:32:14.714Z,16.30
2023-05-22T23:34:42.523Z,14.60
2023-05-22T23:37:10.086Z,17.27
2023-05-22T23:39:37.025Z,19.23
2023-05-22T23:42:04.066Z,18.60
2023-05-22T23:44:32.006Z,18.50
2023-05-22T23:47:00.016Z,16.23
2023-05-22T23:49:27.041Z,18.00
2023-05-22T23:51:53.952Z,17.03
2023-05-22T23:54:21.015Z,19.33
2023-05-22T23:56:47.970Z,17.67
2023-05-22T23:59:15.734Z,18.53
